12:41
Airports
Links
Donate
Help keep this website running!
PayPal
Bitcoin
METAR
KOWD 181153Z 00000KT 10SM OVC027 M03/M09 A3019 RMK AO2 SLP224 T10331094 11033 21067 56008
Current Weather Conditions at KOWD
MVFR 11:53:00 18-12-17
Automated station
Altimeter:30.19 hg
Temp:-3.3°c 27°f
Dew point:-9.4°c 16°f
Wind:0 knots, 0 mph, 0 m/s,
Variable direction
Visibility:10.0 statute miles
2700(OVC) Overcast
Past METAR reports
MVFR 10:53:00 18-12-17
Automated station, no observer
Altimeter:30.19 hg
Temp:-3.9°c 27°f
Dew point:-9.4°c 16°f
Wind:0 knots, 0 mph, 0 m/s,
Variable direction
Visibility:10.0 statute miles
2900(OVC) Overcast
KOWD 181053Z AUTO 00000KT 10SM OVC029 M04/M09 A3019 RMK AO2 SLP224 T10391094
MVFR 10:40:00 18-12-17
Automated station, no observer
Altimeter:30.19 hg
Temp:-3.9°c 27°f
Dew point:-9.4°c 16°f
Wind:0 knots, 0 mph, 0 m/s,
Variable direction
Visibility:10.0 statute miles
5000(OVC) Overcast
2900(BKN) Broken
KOWD 181040Z AUTO 00000KT 10SM BKN029 OVC050 M04/M09 A3019 RMK AO2 T10391094
VFR 09:53:00 18-12-17
Automated station, no observer
Altimeter:30.19 hg
Temp:-3.9°c 27°f
Dew point:-8.9°c 18°f
Wind:0 knots, 0 mph, 0 m/s,
Variable direction
Visibility:10.0 statute miles
6000(OVC) Overcast
KOWD 180953Z AUTO 00000KT 10SM OVC060 M04/M09 A3019 RMK AO2 SLP225 T10391089
VFR 08:53:00 18-12-17
Automated station, no observer
Altimeter:30.22 hg
Temp:-4.4°c 25°f
Dew point:-9.4°c 16°f
Wind:0 knots, 0 mph, 0 m/s,
Variable direction
Visibility:10.0 statute miles
9500(OVC) Overcast
7500(BKN) Broken
KOWD 180853Z AUTO 00000KT 10SM BKN075 OVC095 M04/M09 A3022 RMK AO2 SLP233 T10441094 58008
VFR 07:53:00 18-12-17
Automated station, no observer
Altimeter:30.25 hg
Temp:-5.0°c 23°f
Dew point:-8.9°c 18°f
Wind:0 knots, 0 mph, 0 m/s,
Variable direction
Visibility:10.0 statute miles
8500(BKN) Broken
6000(SCT) Scattered
KOWD 180753Z AUTO 00000KT 10SM SCT060 BKN085 M05/M09 A3025 RMK AO2 SLP243 T10501089
VFR 06:53:00 18-12-17
Automated station, no observer
Altimeter:30.24 hg
Temp:-5.6°c 23°f
Dew point:-9.4°c 16°f
Wind:0 knots, 0 mph, 0 m/s,
Variable direction
Visibility:10.0 statute miles
(CLR) Clear
KOWD 180653Z AUTO 00000KT 10SM CLR M06/M09 A3024 RMK AO2 SLP241 T10561094
TAF
No TAF for KOWD
Forecast at KOWD
No Forecast Reports for KOWD